MMMY/MTY METAR and TAF weather

Enter ICAO airport designator
Station Type Date Time Source
MMMY METAR 2019/10/23 11:43 UTC NOAA

MMMY 231143Z 12003KT 7SM BKN018 19/16 A3004 RMK SLP/// 5//// 9// 8/500


Station Type Date Time Source
MMMY Decoded METAR 2019/10/23 11:43 UTC NOAA

Monterrey / Gen Maria, Mexico (MMMY) 25-47N 100-06W
Oct 23, 2019 - 07:43 AM EDT / 2019.10.23 1143 UTC
Wind: from the ESE (120 degrees) at 3 MPH (3 KT):0
Visibility: 7 mile(s):0
Sky conditions: mostly cloudy
Temperature: 66 F (19 C)
Dew Point: 60 F (16 C)
Relative Humidity: 82%
Pressure (altimeter): 30.04 in. Hg (1017 hPa)
ob: MMMY 231143Z 12003KT 7SM BKN018 19/16 A3004 RMK SLP/// 5//// 9// 8/500
cycle: 11

Station Type Date Time Source
MMMY TAF 2019/10/23 12:08 UTC NOAA

TAF MMMY 231104Z 2312/2418 08004KT P6SM OVC018 TX28/2321Z TN20/2312Z
TEMPO 2312/2315 5SM HZ
FM231800 15010KT P6SM SCT030 SCT080
FM240600 09005KT P6SM SCT080
BECMG 2411/2413 08005KT 5SM HZ

Example: see airport list